Shraders, Pennsylvania
Current Conditions -  °F | °C
As of 12:55 AM on Thursday 23 Oct 2014 (Local Time) from KUNV Reporting Station
Overcast Overcast  
Wind Chill: 43°   Ceiling: 1700
Heat Index: 47°   Visibility: 10mi
Dew Point: 41°   Wind: 7mph
Humidity: 80%   Direction: 10°N
Pressure: 30.02"   Gusts: NA
Location:  40.6771°N, 77.6392°W
Report Text: KUNV 230455Z AUTO 01006KT 10SM OVC017 08/05 A3002 RMK AO2 T00820050
Loading
Personal Weather Stations






























Interactive Weather Map
Tropical Storm Tracking
New forecast layout! Learn more

10-Day Weather Forecast

Advertisements
Track Severe Weather on mobile